Butler, Ohio
Current Conditions -  °F | °C
As of 2:52 AM on Thursday 23 Oct 2014 (Local Time) from KMFD Reporting Station
Overcast Overcast  
Wind Chill: 39°   Ceiling: 3300
Heat Index: 43°   Visibility: 10mi
Dew Point: 42°   Wind: 7mph
Humidity: 97%   Direction: 300°WNW
Pressure: 30.22"   Gusts: NA
Location:  40.59°N, 82.42°W
Report Text: KMFD 230652Z 30006KT 10SM FEW011 OVC033 06/06 A3022 RMK AO2 SLP240 T00610056
Loading
Personal Weather Stations






























Interactive Weather Map
Tropical Storm Tracking
New forecast layout! Learn more

10-Day Weather Forecast

Advertisements
Track Severe Weather on mobile